createdAt,value
2023-11-20T00:01:09.003Z,10.80
2023-11-20T00:04:53.227Z,10.70
2023-11-20T00:08:35.136Z,10.70
2023-11-20T00:12:16.903Z,10.60
2023-11-20T00:15:58.889Z,10.60
2023-11-20T00:19:40.767Z,10.50
2023-11-20T00:23:23.865Z,10.40
2023-11-20T00:27:09.225Z,10.40
2023-11-20T00:30:51.329Z,10.30
2023-11-20T00:34:33.208Z,10.30
2023-11-20T00:38:18.216Z,10.20
2023-11-20T00:42:00.059Z,10.20
2023-11-20T00:45:41.967Z,10.20
2023-11-20T00:49:23.801Z,10.10
2023-11-20T00:53:05.668Z,10.10
2023-11-20T00:56:47.459Z,10.00
2023-11-20T01:00:29.399Z,10.00
2023-11-20T01:04:11.431Z,10.00
2023-11-20T01:07:53.421Z,10.00
2023-11-20T01:11:37.823Z,10.00
2023-11-20T01:15:19.819Z,9.90
2023-11-20T01:19:01.781Z,9.90
2023-11-20T01:22:43.643Z,9.80
2023-11-20T01:26:25.814Z,9.80
2023-11-20T01:30:11.056Z,9.70
2023-11-20T01:33:53.441Z,9.70
2023-11-20T01:37:35.399Z,9.60
2023-11-20T01:41:17.805Z,9.60
2023-11-20T01:45:00.569Z,9.60
2023-11-20T01:48:43.185Z,9.60
2023-11-20T01:52:25.169Z,9.60
2023-11-20T01:56:09.978Z,9.60
2023-11-20T01:59:52.174Z,9.60
2023-11-20T02:03:34.835Z,9.60
2023-11-20T02:07:17.295Z,9.70
2023-11-20T02:11:03.599Z,9.70
2023-11-20T02:14:45.725Z,9.70
2023-11-20T02:18:31.654Z,9.70
2023-11-20T02:22:13.527Z,9.70
2023-11-20T02:26:10.801Z,9.60
2023-11-20T02:29:54.803Z,9.60
2023-11-20T02:33:37.588Z,9.60
2023-11-20T02:37:19.710Z,9.60
2023-11-20T02:41:01.713Z,9.60
2023-11-20T02:44:44.712Z,9.60
2023-11-20T02:48:30.478Z,9.60
2023-11-20T02:52:12.498Z,9.60
2023-11-20T02:55:54.315Z,9.60
2023-11-20T02:59:36.188Z,9.70
2023-11-20T03:03:19.065Z,9.70
2023-11-20T03:07:01.809Z,9.80
2023-11-20T03:10:43.644Z,9.70
2023-11-20T03:14:25.475Z,9.70
2023-11-20T03:18:07.774Z,9.80
2023-11-20T03:21:49.634Z,9.80
2023-11-20T03:25:31.818Z,9.80
2023-11-20T03:29:13.700Z,9.70
2023-11-20T03:32:55.549Z,9.70
2023-11-20T03:36:37.533Z,9.80
2023-11-20T03:40:19.534Z,9.80
2023-11-20T03:44:01.441Z,9.80
2023-11-20T03:47:43.278Z,9.80
2023-11-20T03:51:26.989Z,9.80
2023-11-20T03:55:10.956Z,9.80
2023-11-20T03:58:52.804Z,9.80
2023-11-20T04:02:34.613Z,9.90
2023-11-20T04:06:16.450Z,9.90
2023-11-20T04:09:58.859Z,9.90
2023-11-20T04:13:41.961Z,9.90
2023-11-20T04:17:23.955Z,10.00
2023-11-20T04:21:07.134Z,10.00
2023-11-20T04:24:49.655Z,10.00
2023-11-20T04:28:36.444Z,10.10
2023-11-20T04:32:18.271Z,10.10
2023-11-20T04:36:03.988Z,10.10
2023-11-20T04:39:46.120Z,10.10
2023-11-20T04:43:27.989Z,10.10
2023-11-20T04:47:09.825Z,10.10
2023-11-20T04:50:51.704Z,10.10
2023-11-20T04:54:34.639Z,10.20
2023-11-20T04:58:22.834Z,10.20
2023-11-20T05:02:04.895Z,10.10
2023-11-20T05:05:46.971Z,10.10
2023-11-20T05:09:28.777Z,10.10
2023-11-20T05:13:12.092Z,10.10
2023-11-20T05:16:54.050Z,10.10
2023-11-20T05:20:35.976Z,10.10
2023-11-20T05:24:17.809Z,10.20
2023-11-20T05:27:59.686Z,10.20
2023-11-20T05:31:43.965Z,10.20
2023-11-20T05:35:25.868Z,10.20
2023-11-20T05:39:07.755Z,10.20
2023-11-20T05:42:49.682Z,10.20
2023-11-20T05:46:31.489Z,10.30
2023-11-20T05:50:13.478Z,10.30
2023-11-20T05:53:55.358Z,10.30
2023-11-20T05:57:38.293Z,10.30
2023-11-20T06:01:20.195Z,10.40
2023-11-20T06:05:07.537Z,10.40
2023-11-20T06:08:50.998Z,10.40
2023-11-20T06:12:32.798Z,10.40
2023-11-20T06:16:15.926Z,10.40
2023-11-20T06:19:58.286Z,10.50
2023-11-20T06:23:40.065Z,10.50
2023-11-20T06:27:21.892Z,10.60
2023-11-20T06:31:04.388Z,10.60
2023-11-20T06:34:46.296Z,10.60
2023-11-20T06:38:28.068Z,10.70
2023-11-20T06:42:09.918Z,10.70
2023-11-20T06:45:52.287Z,10.60
2023-11-20T06:49:34.103Z,10.60
2023-11-20T06:53:16.066Z,10.50
2023-11-20T06:56:58.023Z,10.50
2023-11-20T07:00:39.896Z,10.50
2023-11-20T07:04:22.032Z,10.50
2023-11-20T07:08:08.269Z,10.50
2023-11-20T07:11:50.308Z,10.50
2023-11-20T07:15:34.373Z,10.50
2023-11-20T07:19:16.852Z,10.50
2023-11-20T07:22:59.757Z,10.60
2023-11-20T07:26:41.808Z,10.60
2023-11-20T07:30:23.584Z,10.60
2023-11-20T07:34:07.469Z,10.70
2023-11-20T07:37:49.393Z,10.70
2023-11-20T07:41:31.203Z,10.70
2023-11-20T07:45:14.034Z,10.70
2023-11-20T07:48:55.897Z,10.70
2023-11-20T07:52:38.651Z,10.70
2023-11-20T07:56:20.505Z,10.80
2023-11-20T08:00:05.505Z,10.80
2023-11-20T08:03:47.463Z,10.80
2023-11-20T08:07:29.328Z,10.90
2023-11-20T08:11:11.185Z,10.90
2023-11-20T08:14:52.999Z,11.00
2023-11-20T08:18:37.347Z,11.00
2023-11-20T08:22:19.733Z,11.00
2023-11-20T08:26:01.654Z,11.10
2023-11-20T08:29:44.204Z,11.10
2023-11-20T08:33:26.121Z,11.10
2023-11-20T08:37:09.009Z,11.10
2023-11-20T08:40:51.902Z,11.20
2023-11-20T08:44:34.976Z,11.20
2023-11-20T08:48:16.898Z,11.10
2023-11-20T08:52:04.298Z,11.10
2023-11-20T08:55:47.408Z,11.10
2023-11-20T08:59:32.441Z,11.10
2023-11-20T09:03:14.731Z,11.00
2023-11-20T09:06:56.742Z,11.00
2023-11-20T09:10:39.093Z,11.00
2023-11-20T09:14:20.903Z,11.00
2023-11-20T09:18:02.782Z,11.00
2023-11-20T09:21:45.034Z,11.00
2023-11-20T09:25:27.255Z,11.10
2023-11-20T09:29:11.414Z,11.20
2023-11-20T09:32:54.893Z,11.40
2023-11-20T09:36:36.760Z,11.60
2023-11-20T09:40:19.009Z,12.10
2023-11-20T09:44:01.666Z,12.70
2023-11-20T09:47:47.049Z,13.20
2023-11-20T09:51:29.613Z,13.40
2023-11-20T09:55:13.953Z,13.30
2023-11-20T09:58:55.803Z,13.20
2023-11-20T10:02:37.823Z,13.10
2023-11-20T10:06:23.009Z,12.90
2023-11-20T10:10:06.823Z,12.90
2023-11-20T10:13:48.767Z,12.80
2023-11-20T10:17:30.928Z,12.90
2023-11-20T10:21:19.078Z,12.90
2023-11-20T10:25:05.570Z,13.00
2023-11-20T10:28:47.422Z,13.30
2023-11-20T10:32:29.460Z,13.40
2023-11-20T10:36:15.916Z,13.60
2023-11-20T10:39:57.920Z,13.70
2023-11-20T10:43:42.268Z,13.70
2023-11-20T10:47:26.281Z,13.80
2023-11-20T10:51:10.372Z,13.80
2023-11-20T10:54:52.774Z,13.80
2023-11-20T10:58:34.961Z,13.80
2023-11-20T11:02:21.392Z,13.90
2023-11-20T11:06:11.264Z,14.00
2023-11-20T11:09:54.696Z,14.00
2023-11-20T11:13:37.309Z,14.10
2023-11-20T11:17:23.914Z,14.20
2023-11-20T11:21:11.574Z,14.10
2023-11-20T11:24:58.609Z,14.10
2023-11-20T11:28:44.601Z,14.20
2023-11-20T11:32:32.699Z,14.30
2023-11-20T11:36:59.898Z,15.10
2023-11-20T11:41:15.151Z,15.80
2023-11-20T11:45:18.754Z,16.10
2023-11-20T11:49:23.238Z,16.30
2023-11-20T11:53:05.214Z,17.00
2023-11-20T11:57:25.651Z,17.50
2023-11-20T12:01:20.424Z,17.30
2023-11-20T12:05:02.962Z,17.00
2023-11-20T12:08:48.240Z,16.70
2023-11-20T12:12:49.564Z,16.50
2023-11-20T12:16:37.829Z,16.50
2023-11-20T12:20:20.114Z,16.50
2023-11-20T12:24:02.288Z,16.40
2023-11-20T12:27:47.807Z,16.20
2023-11-20T12:31:29.714Z,16.00
2023-11-20T12:35:11.590Z,16.10
2023-11-20T12:38:54.368Z,16.10
2023-11-20T12:42:37.364Z,15.90
2023-11-20T12:46:20.916Z,15.70
2023-11-20T12:50:03.210Z,15.50
2023-11-20T12:53:48.012Z,15.40
2023-11-20T12:57:32.019Z,15.20
2023-11-20T13:01:14.193Z,15.10
2023-11-20T13:04:56.263Z,15.00
2023-11-20T13:08:39.248Z,15.00
2023-11-20T13:12:23.003Z,15.00
2023-11-20T13:16:22.050Z,14.90
2023-11-20T13:20:11.856Z,14.90
2023-11-20T13:24:01.221Z,15.00
2023-11-20T13:27:43.324Z,15.10
2023-11-20T13:31:38.196Z,15.10
2023-11-20T13:35:21.018Z,15.00
2023-11-20T13:39:04.062Z,15.00
2023-11-20T13:42:45.870Z,15.10
2023-11-20T13:46:33.822Z,15.10
2023-11-20T13:50:16.722Z,15.10
2023-11-20T13:53:58.529Z,15.00
2023-11-20T13:57:40.585Z,15.10
2023-11-20T14:01:22.662Z,15.10
2023-11-20T14:05:05.568Z,15.10
2023-11-20T14:08:49.673Z,15.10
2023-11-20T14:12:31.527Z,15.10
2023-11-20T14:16:13.903Z,15.00
2023-11-20T14:19:55.957Z,14.90
2023-11-20T14:23:40.323Z,14.90
2023-11-20T14:27:22.189Z,14.90
2023-11-20T14:31:04.346Z,15.10
2023-11-20T14:34:46.219Z,15.00
2023-11-20T14:38:28.201Z,14.90
2023-11-20T14:42:10.608Z,15.00
2023-11-20T14:45:52.833Z,15.70
2023-11-20T14:49:36.463Z,16.20
2023-11-20T14:53:19.406Z,16.20
2023-11-20T14:57:01.491Z,15.90
2023-11-20T15:00:43.290Z,15.60
2023-11-20T15:04:28.189Z,15.30
2023-11-20T15:08:10.069Z,15.10
2023-11-20T15:11:52.379Z,14.90
2023-11-20T15:15:34.391Z,14.70
2023-11-20T15:19:16.240Z,14.60
2023-11-20T15:22:58.209Z,14.40
2023-11-20T15:26:40.146Z,14.30
2023-11-20T15:30:21.998Z,14.10
2023-11-20T15:34:04.782Z,14.00
2023-11-20T15:37:46.721Z,13.90
2023-11-20T15:41:28.542Z,13.80
2023-11-20T15:45:12.219Z,13.70
2023-11-20T15:48:54.153Z,13.60
2023-11-20T15:52:36.026Z,13.50
2023-11-20T15:56:18.321Z,13.40
2023-11-20T16:00:01.055Z,13.40
2023-11-20T16:03:43.874Z,13.30
2023-11-20T16:07:25.861Z,13.20
2023-11-20T16:11:07.809Z,13.20
2023-11-20T16:14:49.780Z,13.20
2023-11-20T16:18:31.869Z,13.10
2023-11-20T16:22:13.882Z,13.00
2023-11-20T16:25:56.390Z,12.90
2023-11-20T16:29:38.327Z,12.80
2023-11-20T16:33:21.667Z,12.80
2023-11-20T16:37:05.480Z,12.70
2023-11-20T16:40:47.398Z,12.60
2023-11-20T16:44:29.355Z,12.50
2023-11-20T16:48:14.084Z,12.50
2023-11-20T16:51:58.192Z,12.50
2023-11-20T16:55:40.176Z,12.50
2023-11-20T16:59:22.031Z,12.50
2023-11-20T17:03:04.445Z,12.60
2023-11-20T17:06:46.311Z,12.60
2023-11-20T17:10:28.259Z,12.60
2023-11-20T17:14:10.115Z,12.70
2023-11-20T17:17:52.345Z,12.70
2023-11-20T17:21:34.384Z,12.70
2023-11-20T17:25:17.753Z,12.70
2023-11-20T17:28:59.659Z,12.80
2023-11-20T17:32:42.347Z,12.80
2023-11-20T17:36:24.253Z,12.70
2023-11-20T17:40:10.288Z,12.70
2023-11-20T17:43:52.266Z,12.60
2023-11-20T17:47:34.120Z,12.50
2023-11-20T17:51:16.035Z,12.50
2023-11-20T17:54:57.913Z,12.50
2023-11-20T17:58:40.176Z,12.50
2023-11-20T18:02:22.201Z,12.50
2023-11-20T18:06:04.401Z,12.50
2023-11-20T18:09:46.255Z,12.50
2023-11-20T18:13:29.268Z,12.50
2023-11-20T18:17:11.278Z,12.60
2023-11-20T18:20:53.217Z,12.60
2023-11-20T18:24:35.043Z,12.60
2023-11-20T18:28:17.387Z,12.60
2023-11-20T18:31:59.544Z,12.60
2023-11-20T18:35:44.654Z,12.60
2023-11-20T18:39:26.562Z,12.70
2023-11-20T18:43:11.693Z,12.70
2023-11-20T18:46:53.723Z,12.70
2023-11-20T18:50:35.753Z,12.70
2023-11-20T18:54:17.654Z,12.70
2023-11-20T18:58:01.442Z,12.70
2023-11-20T19:01:43.314Z,12.60
2023-11-20T19:05:25.242Z,12.60
2023-11-20T19:09:07.089Z,12.60
2023-11-20T19:12:49.134Z,12.60
2023-11-20T19:16:33.071Z,12.60
2023-11-20T19:20:16.229Z,12.60
2023-11-20T19:23:58.292Z,12.60
2023-11-20T19:27:40.236Z,12.60
2023-11-20T19:31:22.153Z,12.50
2023-11-20T19:35:04.361Z,12.50
2023-11-20T19:38:48.500Z,12.40
2023-11-20T19:42:30.387Z,12.50
2023-11-20T19:46:12.351Z,12.40
2023-11-20T19:49:54.176Z,12.40
2023-11-20T19:53:36.097Z,12.40
2023-11-20T19:57:18.001Z,12.40
2023-11-20T20:00:59.909Z,12.30
2023-11-20T20:04:42.173Z,12.30
2023-11-20T20:08:25.710Z,12.30
2023-11-20T20:12:08.228Z,12.30
2023-11-20T20:15:50.154Z,12.30
2023-11-20T20:19:32.143Z,12.30
2023-11-20T20:23:14.500Z,12.30
2023-11-20T20:26:56.347Z,12.30
2023-11-20T20:30:38.163Z,12.30
2023-11-20T20:34:20.181Z,12.30
2023-11-20T20:38:03.580Z,12.20
2023-11-20T20:41:45.382Z,12.20
2023-11-20T20:45:28.033Z,12.20
2023-11-20T20:49:09.884Z,12.10
2023-11-20T20:52:52.309Z,12.10
2023-11-20T20:56:34.233Z,12.10
2023-11-20T21:00:16.849Z,12.10
2023-11-20T21:03:58.670Z,12.10
2023-11-20T21:07:41.018Z,12.10
2023-11-20T21:11:23.791Z,12.10
2023-11-20T21:15:07.311Z,12.10
2023-11-20T21:18:49.160Z,12.10
2023-11-20T21:22:31.015Z,12.10
2023-11-20T21:26:13.493Z,12.10
2023-11-20T21:29:55.827Z,12.20
2023-11-20T21:33:37.780Z,12.10
2023-11-20T21:37:19.623Z,12.10
2023-11-20T21:41:01.774Z,12.10
2023-11-20T21:44:43.613Z,12.10
2023-11-20T21:48:25.406Z,12.20
2023-11-20T21:52:07.342Z,12.10
2023-11-20T21:55:49.215Z,12.10
2023-11-20T21:59:31.153Z,12.20
2023-11-20T22:03:13.167Z,12.10
2023-11-20T22:06:55.162Z,12.10
2023-11-20T22:10:39.311Z,12.10
2023-11-20T22:14:21.317Z,12.10
2023-11-20T22:18:03.291Z,12.10
2023-11-20T22:21:45.329Z,12.00
2023-11-20T22:25:27.170Z,12.10
2023-11-20T22:29:09.024Z,12.00
2023-11-20T22:32:50.858Z,11.90
2023-11-20T22:36:32.766Z,11.90
2023-11-20T22:40:16.925Z,11.90
2023-11-20T22:43:59.309Z,11.80
2023-11-20T22:47:41.164Z,11.70
2023-11-20T22:51:23.008Z,11.70
2023-11-20T22:55:06.450Z,11.70
2023-11-20T22:58:48.363Z,11.70
2023-11-20T23:02:30.660Z,11.70
2023-11-20T23:06:13.198Z,11.80
2023-11-20T23:09:55.032Z,11.80
2023-11-20T23:13:36.936Z,11.80
2023-11-20T23:17:18.911Z,11.80
2023-11-20T23:21:05.234Z,11.70
2023-11-20T23:24:47.265Z,11.70
2023-11-20T23:28:30.794Z,11.70
2023-11-20T23:32:13.403Z,11.60
2023-11-20T23:35:56.138Z,11.60
2023-11-20T23:39:38.063Z,11.60
2023-11-20T23:43:22.171Z,11.50
2023-11-20T23:47:04.929Z,11.50
2023-11-20T23:50:46.860Z,11.60
2023-11-20T23:54:28.758Z,11.60
2023-11-20T23:58:10.735Z,11.60
